createdAt,value
2019-06-10T00:00:13.794Z,13.94
2019-06-10T00:01:11.918Z,13.95
2019-06-10T00:02:11.047Z,13.98
2019-06-10T00:03:11.528Z,13.97
2019-06-10T00:04:12.516Z,13.89
2019-06-10T00:05:10.961Z,13.95
2019-06-10T00:06:11.556Z,13.80
2019-06-10T00:07:11.827Z,13.76
2019-06-10T00:08:11.896Z,13.79
2019-06-10T00:09:11.751Z,13.80
2019-06-10T00:10:10.784Z,13.80
2019-06-10T00:11:11.652Z,13.85
2019-06-10T00:12:12.370Z,13.78
2019-06-10T00:13:11.942Z,13.73
2019-06-10T00:14:10.730Z,13.73
2019-06-10T00:15:10.863Z,13.75
2019-06-10T00:16:11.469Z,13.65
2019-06-10T00:17:11.032Z,13.71
2019-06-10T00:18:31.843Z,13.76
2019-06-10T00:19:12.691Z,13.70
2019-06-10T00:20:11.164Z,13.68
2019-06-10T00:21:11.207Z,13.62
2019-06-10T00:22:11.635Z,13.62
2019-06-10T00:23:12.204Z,13.57
2019-06-10T00:24:11.651Z,13.62
2019-06-10T00:25:11.815Z,13.61
2019-06-10T00:26:22.195Z,13.58
2019-06-10T00:27:11.726Z,13.55
2019-06-10T00:28:11.883Z,13.57
2019-06-10T00:29:11.749Z,13.57
2019-06-10T00:30:12.097Z,13.62
2019-06-10T00:31:11.531Z,13.58
2019-06-10T00:32:12.648Z,13.70
2019-06-10T00:33:12.135Z,13.70
2019-06-10T00:34:12.112Z,13.71
2019-06-10T00:35:10.129Z,13.68
2019-06-10T00:36:13.238Z,13.70
2019-06-10T00:37:14.290Z,13.68
2019-06-10T00:38:13.835Z,13.58
2019-06-10T00:39:13.157Z,13.60
2019-06-10T00:40:13.748Z,13.64
2019-06-10T00:41:13.862Z,13.64
2019-06-10T00:42:11.563Z,13.60
2019-06-10T00:43:13.308Z,13.67
2019-06-10T00:44:12.303Z,13.64
2019-06-10T00:45:14.735Z,13.61
2019-06-10T00:46:13.168Z,13.52
2019-06-10T00:47:14.331Z,13.46
2019-06-10T00:48:21.100Z,13.46
2019-06-10T00:49:14.428Z,13.49
2019-06-10T00:50:13.110Z,13.50
2019-06-10T00:51:12.947Z,13.54
2019-06-10T00:52:11.742Z,13.54
2019-06-10T00:53:12.185Z,13.43
2019-06-10T00:54:12.784Z,13.50
2019-06-10T00:55:12.513Z,13.64
2019-06-10T00:56:12.159Z,13.57
2019-06-10T00:57:21.043Z,13.64
2019-06-10T00:58:12.023Z,13.58
2019-06-10T00:59:12.730Z,13.58
2019-06-10T01:00:18.263Z,13.58
2019-06-10T01:01:13.074Z,13.57
2019-06-10T01:02:12.461Z,13.47
2019-06-10T01:03:13.567Z,13.49
2019-06-10T01:04:14.375Z,13.47
2019-06-10T01:05:12.534Z,13.54
2019-06-10T01:06:14.634Z,13.37
2019-06-10T01:07:11.731Z,13.37
2019-06-10T01:08:09.012Z,13.36
2019-06-10T01:09:11.402Z,13.43
2019-06-10T01:10:09.025Z,13.47
2019-06-10T01:11:12.590Z,13.46
2019-06-10T01:12:13.095Z,13.52
2019-06-10T01:13:09.680Z,13.49
2019-06-10T01:14:12.081Z,13.39
2019-06-10T01:15:09.960Z,13.37
2019-06-10T01:16:10.060Z,13.36
2019-06-10T01:17:11.933Z,13.33
2019-06-10T01:18:30.516Z,13.33
2019-06-10T01:19:12.447Z,13.31
2019-06-10T01:20:10.681Z,13.39
2019-06-10T01:21:12.062Z,13.24
2019-06-10T01:22:11.106Z,13.30
2019-06-10T01:23:09.844Z,13.23
2019-06-10T01:24:11.596Z,13.21
2019-06-10T01:25:09.849Z,13.31
2019-06-10T01:26:12.345Z,13.27
2019-06-10T01:27:11.885Z,13.37
2019-06-10T01:28:22.008Z,13.46
2019-06-10T01:29:10.280Z,13.40
2019-06-10T01:30:16.671Z,13.37
2019-06-10T01:31:13.128Z,13.50
2019-06-10T01:32:11.859Z,13.36
2019-06-10T01:33:10.870Z,13.49
2019-06-10T01:34:10.026Z,13.42
2019-06-10T01:35:11.071Z,13.36
2019-06-10T01:36:10.250Z,13.39
2019-06-10T01:37:09.389Z,13.45
2019-06-10T01:38:09.931Z,13.47
2019-06-10T01:39:09.483Z,13.46
2019-06-10T01:40:08.681Z,13.47
2019-06-10T01:41:10.686Z,13.55
2019-06-10T01:42:10.971Z,13.49
2019-06-10T01:43:08.625Z,13.50
2019-06-10T01:44:11.103Z,13.52
2019-06-10T01:45:11.095Z,13.54
2019-06-10T01:46:10.874Z,13.54
2019-06-10T01:47:08.764Z,13.50
2019-06-10T01:48:08.815Z,13.52
2019-06-10T01:49:09.573Z,13.49
2019-06-10T01:50:09.601Z,13.57
2019-06-10T01:51:09.042Z,13.49
2019-06-10T01:52:09.438Z,13.50
2019-06-10T01:53:10.095Z,13.50
2019-06-10T01:54:10.010Z,13.47
2019-06-10T01:55:12.145Z,13.57
2019-06-10T01:56:10.351Z,13.57
2019-06-10T01:57:10.976Z,13.61
2019-06-10T01:58:08.444Z,13.65
2019-06-10T01:59:21.972Z,13.71
2019-06-10T02:00:09.925Z,13.75
2019-06-10T02:01:13.507Z,14.12
2019-06-10T02:02:12.186Z,14.51
2019-06-10T02:03:10.849Z,15.19
2019-06-10T02:04:08.364Z,15.81
2019-06-10T02:05:09.173Z,16.22
2019-06-10T02:06:08.764Z,16.61
2019-06-10T02:07:09.192Z,17.04
2019-06-10T02:08:08.706Z,17.14
2019-06-10T02:09:09.616Z,17.37
2019-06-10T02:10:09.512Z,17.50
2019-06-10T02:11:09.192Z,17.72
2019-06-10T02:12:09.903Z,17.94
2019-06-10T02:13:09.264Z,18.18
2019-06-10T02:14:09.455Z,18.36
2019-06-10T02:15:09.431Z,18.76
2019-06-10T02:16:10.351Z,18.70
2019-06-10T02:17:08.212Z,18.81
2019-06-10T02:18:10.746Z,18.81
2019-06-10T02:19:08.191Z,18.98
2019-06-10T02:20:08.176Z,18.88
2019-06-10T02:21:08.166Z,18.96
2019-06-10T02:22:08.184Z,19.01
2019-06-10T02:23:08.143Z,19.41
2019-06-10T02:24:08.155Z,19.37
2019-06-10T02:25:10.581Z,19.55
2019-06-10T02:26:08.119Z,19.75
2019-06-10T02:27:08.101Z,19.74
2019-06-10T02:28:08.123Z,19.85
2019-06-10T02:29:08.078Z,20.07
2019-06-10T02:30:36.446Z,20.44
2019-06-10T02:31:12.680Z,20.59
2019-06-10T02:32:12.376Z,20.66
2019-06-10T02:33:14.272Z,20.60
2019-06-10T02:34:12.415Z,20.48
2019-06-10T02:35:15.397Z,20.63
2019-06-10T02:36:09.003Z,21.05
2019-06-10T02:37:07.985Z,21.23
2019-06-10T02:38:07.993Z,21.35
2019-06-10T02:39:07.994Z,21.53
2019-06-10T02:40:07.966Z,21.65
2019-06-10T02:41:07.975Z,21.94
2019-06-10T02:42:07.947Z,21.44
2019-06-10T02:43:07.929Z,21.51
2019-06-10T02:44:07.935Z,21.56
2019-06-10T02:45:07.917Z,21.60
2019-06-10T02:46:07.896Z,21.59
2019-06-10T02:47:07.887Z,22.12
2019-06-10T02:48:07.884Z,21.94
2019-06-10T02:49:28.331Z,21.81
2019-06-10T02:50:09.459Z,21.97
2019-06-10T02:51:07.849Z,22.14
2019-06-10T02:52:07.827Z,22.37
2019-06-10T02:53:07.819Z,22.34
2019-06-10T02:54:07.807Z,22.52
2019-06-10T02:55:07.844Z,22.53
2019-06-10T02:56:07.788Z,22.38
2019-06-10T02:57:07.776Z,21.96
2019-06-10T02:58:07.765Z,22.08
2019-06-10T02:59:07.776Z,22.00
2019-06-10T03:00:19.835Z,22.08
2019-06-10T03:01:21.465Z,22.15
2019-06-10T03:02:07.715Z,22.47
2019-06-10T03:03:07.707Z,22.74
2019-06-10T03:04:07.702Z,22.61
2019-06-10T03:05:07.697Z,22.74
2019-06-10T03:06:08.807Z,22.36
2019-06-10T03:07:07.670Z,22.38
2019-06-10T03:08:07.651Z,22.43
2019-06-10T03:09:07.662Z,22.67
2019-06-10T03:10:07.644Z,22.74
2019-06-10T03:11:07.637Z,22.71
2019-06-10T03:12:07.617Z,23.14
2019-06-10T03:13:07.601Z,23.39
2019-06-10T03:14:07.601Z,23.39
2019-06-10T03:15:07.596Z,23.42
2019-06-10T03:16:07.568Z,23.40
2019-06-10T03:17:07.606Z,23.16
2019-06-10T03:18:07.549Z,23.18
2019-06-10T03:19:07.533Z,23.18
2019-06-10T03:20:07.530Z,23.48
2019-06-10T03:21:07.525Z,23.62
2019-06-10T03:22:07.501Z,23.47
2019-06-10T03:23:07.501Z,22.93
2019-06-10T03:24:07.479Z,23.11
2019-06-10T03:25:07.474Z,23.16
2019-06-10T03:26:07.473Z,23.40
2019-06-10T03:27:07.449Z,23.71
2019-06-10T03:28:07.468Z,24.04
2019-06-10T03:29:07.434Z,24.26
2019-06-10T03:30:15.325Z,24.25
2019-06-10T03:31:08.438Z,24.25
2019-06-10T03:32:20.128Z,24.51
2019-06-10T03:33:07.384Z,24.25
2019-06-10T03:34:07.391Z,24.47
2019-06-10T03:35:07.370Z,24.58
2019-06-10T03:36:07.361Z,24.24
2019-06-10T03:37:07.350Z,24.24
2019-06-10T03:38:07.337Z,23.69
2019-06-10T03:39:07.361Z,23.48
2019-06-10T03:40:07.315Z,23.69
2019-06-10T03:41:07.304Z,23.63
2019-06-10T03:42:07.317Z,23.86
2019-06-10T03:43:07.280Z,23.99
2019-06-10T03:44:07.275Z,23.48
2019-06-10T03:45:08.429Z,23.44
2019-06-10T03:46:07.267Z,23.39
2019-06-10T03:47:07.246Z,23.54
2019-06-10T03:48:07.234Z,23.76
2019-06-10T03:49:07.221Z,24.46
2019-06-10T03:50:07.226Z,25.12
2019-06-10T03:51:07.203Z,25.00
2019-06-10T03:52:07.186Z,25.18
2019-06-10T03:53:07.177Z,25.19
2019-06-10T03:54:07.175Z,25.39
2019-06-10T03:55:07.162Z,25.14
2019-06-10T03:56:07.162Z,24.18
2019-06-10T03:57:07.136Z,22.86
2019-06-10T03:58:07.142Z,23.32
2019-06-10T03:59:07.122Z,23.69
2019-06-10T04:00:11.447Z,24.22
2019-06-10T04:01:08.103Z,25.03
2019-06-10T04:02:07.084Z,25.03
2019-06-10T04:03:19.346Z,25.68
2019-06-10T04:04:07.063Z,25.46
2019-06-10T04:05:07.056Z,25.22
2019-06-10T04:06:07.970Z,24.92
2019-06-10T04:07:07.036Z,25.39
2019-06-10T04:08:07.028Z,25.88
2019-06-10T04:09:07.010Z,25.61
2019-06-10T04:10:07.000Z,24.77
2019-06-10T04:11:07.008Z,24.82
2019-06-10T04:12:06.992Z,25.00
2019-06-10T04:13:06.968Z,24.85
2019-06-10T04:14:06.993Z,25.36
2019-06-10T04:15:06.950Z,25.16
2019-06-10T04:16:06.938Z,25.03
2019-06-10T04:17:06.974Z,25.24
2019-06-10T04:18:06.922Z,25.78
2019-06-10T04:19:06.955Z,25.74
2019-06-10T04:20:11.631Z,26.19
2019-06-10T04:21:07.881Z,26.29
2019-06-10T04:22:06.871Z,26.44
2019-06-10T04:23:06.908Z,25.99
2019-06-10T04:24:06.857Z,26.04
2019-06-10T04:25:06.857Z,25.93
2019-06-10T04:26:06.844Z,25.63
2019-06-10T04:27:06.826Z,25.62
2019-06-10T04:28:06.811Z,25.62
2019-06-10T04:29:06.839Z,25.56
2019-06-10T04:30:06.795Z,25.44
2019-06-10T04:31:06.792Z,26.08
2019-06-10T04:32:06.769Z,25.88
2019-06-10T04:33:06.756Z,26.19
2019-06-10T04:34:18.527Z,26.79
2019-06-10T04:35:06.741Z,26.79
2019-06-10T04:36:06.727Z,26.34
2019-06-10T04:37:06.716Z,25.61
2019-06-10T04:38:06.706Z,25.43
2019-06-10T04:39:06.733Z,25.78
2019-06-10T04:40:06.685Z,26.19
2019-06-10T04:41:06.673Z,26.56
2019-06-10T04:42:06.664Z,26.56
2019-06-10T04:43:06.670Z,26.79
2019-06-10T04:44:06.645Z,26.96
2019-06-10T04:45:06.641Z,26.73
2019-06-10T04:46:06.641Z,26.03
2019-06-10T04:47:06.618Z,26.18
2019-06-10T04:48:06.606Z,26.71
2019-06-10T04:49:06.592Z,27.10
2019-06-10T04:50:20.895Z,26.81
2019-06-10T04:51:07.585Z,25.83
2019-06-10T04:52:06.561Z,26.16
2019-06-10T04:53:06.567Z,26.31
2019-06-10T04:54:06.542Z,26.81
2019-06-10T04:55:06.538Z,26.73
2019-06-10T04:56:06.529Z,26.96
2019-06-10T04:57:06.533Z,27.53
2019-06-10T04:58:06.504Z,27.40
2019-06-10T04:59:06.494Z,27.41
2019-06-10T05:00:11.320Z,26.89
2019-06-10T05:01:07.483Z,26.98
2019-06-10T05:02:06.457Z,27.50
2019-06-10T05:03:06.461Z,27.64
2019-06-10T05:04:06.443Z,27.28
2019-06-10T05:05:18.956Z,27.71
2019-06-10T05:06:06.431Z,28.40
2019-06-10T05:07:06.409Z,28.03
2019-06-10T05:08:06.396Z,27.90
2019-06-10T05:09:06.385Z,28.09
2019-06-10T05:10:06.378Z,28.70
2019-06-10T05:11:06.379Z,28.67
2019-06-10T05:12:06.353Z,28.67
2019-06-10T05:13:06.349Z,27.71
2019-06-10T05:14:06.379Z,27.57
2019-06-10T05:15:06.324Z,27.43
2019-06-10T05:16:06.324Z,27.76
2019-06-10T05:17:06.304Z,27.44
2019-06-10T05:18:06.297Z,28.01
2019-06-10T05:19:06.281Z,28.49
2019-06-10T05:20:06.269Z,28.52
2019-06-10T05:21:06.299Z,28.37
2019-06-10T05:22:06.261Z,28.35
2019-06-10T05:23:06.241Z,29.00
2019-06-10T05:24:06.230Z,28.65
2019-06-10T05:25:06.227Z,26.36
2019-06-10T05:26:06.212Z,26.56
2019-06-10T05:27:06.216Z,26.88
2019-06-10T05:28:06.199Z,27.38
2019-06-10T05:29:06.182Z,28.01
2019-06-10T05:30:06.170Z,27.75
2019-06-10T05:31:06.157Z,26.41
2019-06-10T05:32:06.140Z,25.14
2019-06-10T05:33:06.138Z,25.48
2019-06-10T05:34:06.149Z,25.74
2019-06-10T05:35:06.135Z,25.55
2019-06-10T05:36:18.082Z,25.21
2019-06-10T05:37:06.087Z,25.59
2019-06-10T05:38:06.120Z,25.61
2019-06-10T05:39:06.070Z,24.65
2019-06-10T05:40:06.061Z,25.06
2019-06-10T05:41:06.050Z,25.36
2019-06-10T05:42:06.039Z,25.18
2019-06-10T05:43:06.030Z,24.55
2019-06-10T05:44:06.124Z,24.89
2019-06-10T05:45:06.041Z,24.81
2019-06-10T05:46:06.005Z,25.09
2019-06-10T05:47:05.990Z,24.65
2019-06-10T05:48:05.988Z,24.55
2019-06-10T05:49:05.987Z,24.62
2019-06-10T05:50:05.955Z,24.16
2019-06-10T05:51:06.755Z,23.06
2019-06-10T05:52:05.930Z,22.61
2019-06-10T05:53:05.954Z,22.43
2019-06-10T05:54:05.907Z,22.43
2019-06-10T05:55:05.911Z,21.83
2019-06-10T05:56:05.892Z,21.62
2019-06-10T05:57:05.884Z,22.07
2019-06-10T05:58:05.878Z,21.96
2019-06-10T05:59:05.876Z,22.03
2019-06-10T06:00:11.442Z,21.75
2019-06-10T06:01:06.834Z,21.40
2019-06-10T06:02:05.849Z,21.05
2019-06-10T06:03:05.811Z,21.51
2019-06-10T06:04:05.800Z,21.85
2019-06-10T06:05:05.835Z,21.91
2019-06-10T06:06:05.792Z,22.19
2019-06-10T06:07:17.796Z,22.98
2019-06-10T06:08:08.902Z,22.65
2019-06-10T06:09:05.762Z,22.12
2019-06-10T06:10:05.736Z,22.22
2019-06-10T06:11:05.734Z,21.53
2019-06-10T06:12:05.726Z,21.94
2019-06-10T06:13:05.706Z,21.50
2019-06-10T06:14:05.698Z,20.89
2019-06-10T06:15:05.696Z,20.89
2019-06-10T06:16:05.676Z,20.64
2019-06-10T06:17:05.665Z,20.75
2019-06-10T06:18:10.221Z,21.05
2019-06-10T06:19:06.642Z,21.22
2019-06-10T06:20:05.625Z,21.11
2019-06-10T06:21:20.698Z,21.17
2019-06-10T06:22:06.641Z,20.95
2019-06-10T06:23:08.929Z,20.89
2019-06-10T06:24:05.666Z,20.52
2019-06-10T06:25:05.569Z,20.64
2019-06-10T06:26:05.570Z,20.56
2019-06-10T06:27:05.548Z,20.64
2019-06-10T06:28:05.559Z,20.80
2019-06-10T06:29:05.537Z,20.60
2019-06-10T06:30:11.328Z,20.58
2019-06-10T06:31:06.508Z,20.68
2019-06-10T06:32:05.495Z,20.75
2019-06-10T06:33:05.520Z,20.89
2019-06-10T06:34:05.485Z,21.00
2019-06-10T06:35:05.471Z,21.28
2019-06-10T06:36:05.459Z,21.51
2019-06-10T06:37:05.456Z,21.56
2019-06-10T06:38:16.696Z,21.53
2019-06-10T06:39:05.429Z,21.68
2019-06-10T06:40:05.408Z,21.53
2019-06-10T06:41:05.439Z,21.65
2019-06-10T06:42:05.398Z,21.51
2019-06-10T06:43:05.376Z,21.30
2019-06-10T06:44:05.357Z,20.75
2019-06-10T06:45:05.363Z,20.66
2019-06-10T06:46:05.352Z,20.55
2019-06-10T06:47:05.324Z,20.56
2019-06-10T06:48:05.342Z,20.59
2019-06-10T06:49:05.305Z,20.56
2019-06-10T06:50:05.300Z,20.49
2019-06-10T06:51:08.571Z,20.26
2019-06-10T06:52:05.289Z,20.58
2019-06-10T06:53:30.024Z,20.48
2019-06-10T06:54:06.250Z,20.59
2019-06-10T06:55:05.251Z,20.60
2019-06-10T06:56:05.228Z,20.60
2019-06-10T06:57:05.218Z,20.66
2019-06-10T06:58:05.222Z,20.73
2019-06-10T06:59:05.223Z,20.53
2019-06-10T07:00:34.087Z,20.64
2019-06-10T07:01:10.974Z,20.86
2019-06-10T07:02:06.159Z,21.07
2019-06-10T07:03:05.182Z,21.01
2019-06-10T07:04:05.134Z,20.85
2019-06-10T07:05:05.128Z,20.88
2019-06-10T07:06:05.127Z,20.86
2019-06-10T07:07:05.107Z,20.88
2019-06-10T07:08:05.097Z,20.77
2019-06-10T07:09:17.244Z,20.82
2019-06-10T07:10:05.066Z,20.77
2019-06-10T07:11:05.063Z,20.60
2019-06-10T07:12:05.063Z,20.55
2019-06-10T07:13:05.039Z,20.64
2019-06-10T07:14:05.034Z,20.95
2019-06-10T07:15:05.013Z,20.85
2019-06-10T07:16:05.005Z,21.15
2019-06-10T07:17:05.004Z,21.19
2019-06-10T07:18:04.982Z,21.13
2019-06-10T07:19:04.982Z,21.10
2019-06-10T07:20:04.972Z,20.89
2019-06-10T07:21:04.961Z,20.92
2019-06-10T07:22:11.943Z,20.82
2019-06-10T07:23:05.927Z,20.77
2019-06-10T07:24:04.929Z,20.64
2019-06-10T07:25:06.634Z,20.55
2019-06-10T07:26:04.908Z,20.59
2019-06-10T07:27:04.920Z,20.85
2019-06-10T07:28:04.875Z,21.13
2019-06-10T07:29:04.863Z,21.15
2019-06-10T07:30:11.883Z,21.37
2019-06-10T07:31:19.818Z,21.45
2019-06-10T07:32:05.827Z,21.44
2019-06-10T07:33:04.817Z,21.30
2019-06-10T07:34:04.816Z,21.30
2019-06-10T07:35:04.833Z,21.25
2019-06-10T07:36:04.789Z,21.23
2019-06-10T07:37:04.777Z,21.32
2019-06-10T07:38:04.765Z,21.11
2019-06-10T07:39:04.745Z,21.32
2019-06-10T07:40:16.286Z,21.58
2019-06-10T07:41:04.738Z,21.75
2019-06-10T07:42:04.719Z,21.72
2019-06-10T07:43:04.706Z,21.80
2019-06-10T07:44:04.688Z,21.69
2019-06-10T07:45:04.683Z,21.63
2019-06-10T07:46:04.676Z,21.72
2019-06-10T07:47:04.657Z,21.77
2019-06-10T07:48:04.656Z,21.74
2019-06-10T07:49:04.641Z,21.66
2019-06-10T07:50:04.650Z,21.68
2019-06-10T07:51:04.629Z,21.75
2019-06-10T07:52:15.641Z,21.69
2019-06-10T07:53:05.587Z,21.81
2019-06-10T07:54:04.606Z,21.89
2019-06-10T07:55:04.570Z,21.84
2019-06-10T07:56:04.558Z,22.14
2019-06-10T07:57:04.567Z,22.38
2019-06-10T07:58:04.535Z,22.23
2019-06-10T07:59:04.550Z,22.04
2019-06-10T08:00:04.516Z,22.07
2019-06-10T08:01:04.508Z,22.30
2019-06-10T08:02:04.497Z,22.06
2019-06-10T08:03:04.488Z,21.92
2019-06-10T08:04:04.467Z,21.97
2019-06-10T08:05:04.473Z,21.88
2019-06-10T08:06:04.449Z,22.18
2019-06-10T08:07:04.438Z,22.40
2019-06-10T08:08:04.493Z,22.44
2019-06-10T08:09:04.411Z,22.37
2019-06-10T08:10:05.295Z,22.21
2019-06-10T08:11:15.870Z,22.34
2019-06-10T08:12:06.020Z,22.43
2019-06-10T08:13:04.361Z,22.40
2019-06-10T08:14:04.778Z,22.34
2019-06-10T08:15:04.343Z,22.63
2019-06-10T08:16:04.335Z,22.67
2019-06-10T08:17:04.332Z,22.70
2019-06-10T08:18:04.464Z,22.44
2019-06-10T08:19:26.370Z,22.61
2019-06-10T08:20:05.314Z,22.73
2019-06-10T08:21:04.299Z,22.80
2019-06-10T08:22:04.269Z,22.78
2019-06-10T08:23:04.272Z,22.77
2019-06-10T08:24:04.284Z,22.93
2019-06-10T08:25:04.854Z,22.59
2019-06-10T08:26:04.230Z,22.63
2019-06-10T08:27:04.212Z,22.55
2019-06-10T08:28:04.223Z,22.44
2019-06-10T08:29:04.547Z,22.49
2019-06-10T08:30:15.544Z,22.63
2019-06-10T08:31:05.182Z,22.47
2019-06-10T08:32:04.155Z,22.63
2019-06-10T08:33:04.151Z,22.74
2019-06-10T08:34:04.144Z,22.43
2019-06-10T08:35:04.165Z,22.00
2019-06-10T08:36:04.247Z,21.80
2019-06-10T08:37:04.642Z,21.89
2019-06-10T08:38:04.115Z,21.74
2019-06-10T08:39:04.080Z,21.81
2019-06-10T08:40:04.065Z,21.68
2019-06-10T08:41:04.083Z,21.62
2019-06-10T08:42:15.633Z,21.89
2019-06-10T08:43:04.420Z,22.04
2019-06-10T08:44:04.029Z,22.19
2019-06-10T08:45:04.017Z,22.33
2019-06-10T08:46:04.041Z,22.61
2019-06-10T08:47:03.993Z,22.53
2019-06-10T08:48:03.984Z,22.76
2019-06-10T08:49:04.356Z,22.76
2019-06-10T08:50:03.959Z,23.06
2019-06-10T08:51:04.175Z,23.23
2019-06-10T08:52:03.959Z,23.37
2019-06-10T08:53:13.454Z,23.47
2019-06-10T08:54:04.926Z,23.44
2019-06-10T08:55:03.909Z,23.34
2019-06-10T08:56:03.901Z,23.04
2019-06-10T08:57:04.690Z,23.11
2019-06-10T08:58:04.529Z,22.93
2019-06-10T08:59:03.860Z,22.81
2019-06-10T09:00:10.987Z,22.81
2019-06-10T09:01:04.840Z,22.81
2019-06-10T09:02:03.830Z,22.43
2019-06-10T09:03:04.271Z,22.47
2019-06-10T09:04:03.818Z,22.44
2019-06-10T09:05:03.875Z,22.61
2019-06-10T09:06:03.801Z,22.59
2019-06-10T09:07:04.360Z,22.47
2019-06-10T09:08:03.771Z,22.63
2019-06-10T09:09:03.759Z,22.81
2019-06-10T09:10:03.756Z,23.07
2019-06-10T09:11:03.736Z,23.11
2019-06-10T09:12:03.788Z,23.34
2019-06-10T09:13:15.411Z,23.39
2019-06-10T09:14:03.698Z,23.49
2019-06-10T09:15:03.894Z,23.44
2019-06-10T09:16:14.772Z,23.34
2019-06-10T09:17:04.656Z,23.20
2019-06-10T09:18:03.654Z,23.06
2019-06-10T09:19:03.650Z,22.68
2019-06-10T09:20:03.638Z,22.58
2019-06-10T09:21:03.621Z,22.38
2019-06-10T09:22:03.951Z,22.34
2019-06-10T09:23:18.436Z,22.04
2019-06-10T09:24:04.606Z,22.03
2019-06-10T09:25:03.582Z,22.19
2019-06-10T09:26:03.859Z,22.26
2019-06-10T09:27:03.593Z,22.31
2019-06-10T09:28:03.544Z,22.38
2019-06-10T09:29:03.554Z,22.40
2019-06-10T09:30:03.529Z,22.16
2019-06-10T09:31:04.368Z,22.10
2019-06-10T09:32:03.495Z,22.03
2019-06-10T09:33:04.222Z,22.07
2019-06-10T09:34:04.115Z,22.37
2019-06-10T09:35:03.610Z,22.46
2019-06-10T09:36:03.919Z,22.61
2019-06-10T09:37:04.122Z,22.43
2019-06-10T09:38:03.805Z,22.37
2019-06-10T09:39:04.091Z,22.41
2019-06-10T09:40:03.599Z,22.53
2019-06-10T09:41:06.185Z,22.56
2019-06-10T09:42:06.448Z,22.62
2019-06-10T09:43:03.381Z,22.65
2019-06-10T09:44:14.670Z,22.56
2019-06-10T09:45:03.396Z,22.83
2019-06-10T09:46:03.807Z,22.80
2019-06-10T09:47:03.586Z,22.76
2019-06-10T09:48:03.959Z,22.58
2019-06-10T09:49:03.312Z,22.33
2019-06-10T09:50:03.380Z,22.30
2019-06-10T09:51:03.331Z,22.30
2019-06-10T09:52:03.595Z,22.15
2019-06-10T09:53:04.184Z,22.18
2019-06-10T09:54:06.613Z,22.34
2019-06-10T09:55:03.319Z,22.31
2019-06-10T09:56:04.315Z,22.63
2019-06-10T09:57:03.377Z,22.89
2019-06-10T09:58:03.332Z,23.06
2019-06-10T09:59:03.872Z,22.81
2019-06-10T10:00:04.379Z,22.88
2019-06-10T10:01:03.642Z,22.91
2019-06-10T10:02:06.319Z,22.80
2019-06-10T10:03:03.504Z,22.78
2019-06-10T10:04:03.148Z,22.99
2019-06-10T10:05:03.148Z,22.80
2019-06-10T10:06:13.684Z,22.78
2019-06-10T10:07:04.133Z,22.56
2019-06-10T10:08:03.098Z,22.71
2019-06-10T10:09:04.094Z,22.62
2019-06-10T10:10:04.508Z,22.67
2019-06-10T10:11:03.271Z,22.70
2019-06-10T10:12:03.123Z,22.62
2019-06-10T10:13:03.037Z,22.73
2019-06-10T10:14:06.486Z,22.62
2019-06-10T10:16:18.309Z,22.80
2019-06-10T10:17:18.194Z,22.96
2019-06-10T10:18:18.136Z,22.76
2019-06-10T10:19:18.128Z,22.81
2019-06-10T10:20:18.115Z,22.77
2019-06-10T10:21:18.102Z,22.77
2019-06-10T10:22:18.099Z,22.91
2019-06-10T10:23:18.090Z,22.58
2019-06-10T10:24:18.111Z,22.77
2019-06-10T10:25:18.063Z,22.88
2019-06-10T10:26:18.050Z,22.89
2019-06-10T10:27:18.038Z,22.91
2019-06-10T10:28:18.039Z,22.89
2019-06-10T10:29:18.077Z,23.06
2019-06-10T10:30:18.014Z,23.08
2019-06-10T10:31:18.024Z,22.96
2019-06-10T10:32:18.003Z,22.83
2019-06-10T10:33:18.032Z,22.76
2019-06-10T10:34:17.965Z,22.71
2019-06-10T10:35:17.995Z,22.77
2019-06-10T10:36:17.946Z,22.61
2019-06-10T10:37:17.943Z,22.71
2019-06-10T10:38:17.946Z,22.68
2019-06-10T10:39:21.207Z,22.73
2019-06-10T10:40:18.940Z,22.76
2019-06-10T10:41:17.889Z,22.71
2019-06-10T10:42:17.876Z,22.65
2019-06-10T10:43:29.129Z,22.56
2019-06-10T10:44:18.850Z,22.74
2019-06-10T10:45:17.846Z,22.74
2019-06-10T10:46:28.058Z,22.78
2019-06-10T10:47:17.821Z,22.70
2019-06-10T10:48:17.810Z,22.80
2019-06-10T10:49:17.796Z,22.73
2019-06-10T10:50:17.790Z,22.63
2019-06-10T10:51:17.780Z,22.73
2019-06-10T10:52:17.787Z,22.92
2019-06-10T10:53:17.755Z,23.11
2019-06-10T10:54:25.561Z,22.99
2019-06-10T10:55:18.753Z,22.92
2019-06-10T10:56:17.723Z,22.74
2019-06-10T10:57:17.706Z,22.73
2019-06-10T10:58:17.736Z,22.76
2019-06-10T10:59:17.715Z,22.88
2019-06-10T11:00:17.674Z,22.86
2019-06-10T11:01:17.663Z,22.81
2019-06-10T11:02:17.706Z,22.98
2019-06-10T11:03:17.654Z,22.99
2019-06-10T11:04:17.639Z,23.10
2019-06-10T11:05:17.620Z,23.02
2019-06-10T11:06:18.312Z,23.02
2019-06-10T11:07:17.609Z,23.14
2019-06-10T11:08:17.655Z,23.33
2019-06-10T11:09:17.575Z,23.49
2019-06-10T11:10:17.570Z,23.36
2019-06-10T11:11:17.577Z,23.34
2019-06-10T11:12:17.556Z,23.39
2019-06-10T11:13:17.544Z,23.51
2019-06-10T11:14:17.546Z,23.40
2019-06-10T11:15:17.517Z,23.14
2019-06-10T11:16:17.499Z,23.06
2019-06-10T11:17:29.254Z,23.06
2019-06-10T11:18:17.480Z,23.04
2019-06-10T11:19:17.473Z,22.99
2019-06-10T11:20:17.462Z,22.86
2019-06-10T11:21:17.449Z,22.99
2019-06-10T11:22:17.435Z,23.17
2019-06-10T11:23:17.420Z,23.13
2019-06-10T11:24:32.801Z,23.18
2019-06-10T11:25:18.406Z,23.17
2019-06-10T11:26:17.419Z,23.08
2019-06-10T11:27:17.398Z,23.04
2019-06-10T11:28:17.364Z,23.11
2019-06-10T11:29:17.358Z,23.28
2019-06-10T11:30:17.372Z,23.39
2019-06-10T11:31:17.330Z,23.48
2019-06-10T11:32:17.327Z,23.49
2019-06-10T11:33:17.310Z,23.70
2019-06-10T11:34:19.739Z,23.70
2019-06-10T11:35:17.313Z,23.56
2019-06-10T11:36:17.285Z,23.48
2019-06-10T11:37:17.290Z,23.10
2019-06-10T11:38:17.353Z,23.14
2019-06-10T11:39:17.246Z,23.17
2019-06-10T11:40:17.307Z,23.29
2019-06-10T11:41:17.236Z,23.32
2019-06-10T11:42:17.222Z,23.40
2019-06-10T11:43:17.208Z,23.54
2019-06-10T11:44:17.207Z,23.64
2019-06-10T11:45:17.219Z,23.51
2019-06-10T11:46:17.207Z,23.36
2019-06-10T11:47:17.154Z,23.49
2019-06-10T11:48:28.474Z,23.36
2019-06-10T11:49:17.135Z,23.45
2019-06-10T11:50:17.129Z,23.52
2019-06-10T11:51:17.110Z,23.40
2019-06-10T11:52:17.147Z,23.51
2019-06-10T11:53:17.089Z,23.58
2019-06-10T11:54:17.089Z,23.55
2019-06-10T11:55:19.061Z,23.62
2019-06-10T11:56:17.059Z,23.45
2019-06-10T11:57:17.052Z,23.33
2019-06-10T11:58:17.072Z,23.37
2019-06-10T11:59:17.029Z,23.40
2019-06-10T12:00:17.496Z,23.33
2019-06-10T12:01:17.024Z,23.37
2019-06-10T12:02:17.006Z,23.51
2019-06-10T12:03:16.996Z,23.56
2019-06-10T12:04:16.978Z,23.70
2019-06-10T12:05:20.310Z,23.82
2019-06-10T12:06:16.958Z,24.04
2019-06-10T12:07:16.942Z,24.06
2019-06-10T12:08:16.950Z,24.07
2019-06-10T12:09:16.932Z,24.06
2019-06-10T12:10:16.907Z,24.01
2019-06-10T12:11:16.894Z,24.13
2019-06-10T12:12:16.886Z,23.91
2019-06-10T12:13:16.872Z,23.96
2019-06-10T12:14:16.870Z,23.89
2019-06-10T12:15:16.867Z,23.81
2019-06-10T12:17:40.062Z,23.48
2019-06-10T12:18:17.823Z,23.51
2019-06-10T12:19:28.775Z,23.55
2019-06-10T12:20:16.793Z,23.42
2019-06-10T12:21:16.790Z,23.54
2019-06-10T12:22:16.862Z,23.52
2019-06-10T12:23:16.760Z,23.48
2019-06-10T12:24:16.758Z,23.51
2019-06-10T12:25:31.540Z,23.51
2019-06-10T12:26:17.733Z,23.54
2019-06-10T12:27:16.734Z,23.54
2019-06-10T12:28:16.707Z,23.48
2019-06-10T12:29:16.700Z,23.47
2019-06-10T12:30:16.701Z,23.25
2019-06-10T12:31:16.704Z,23.44
2019-06-10T12:32:16.669Z,23.54
2019-06-10T12:33:21.274Z,23.42
2019-06-10T12:34:17.645Z,23.59
2019-06-10T12:35:16.634Z,23.77
2019-06-10T12:36:16.636Z,23.85
2019-06-10T12:37:16.637Z,23.92
2019-06-10T12:38:16.603Z,24.06
2019-06-10T12:39:17.406Z,24.13
2019-06-10T12:40:16.579Z,23.92
2019-06-10T12:41:16.577Z,23.89
2019-06-10T12:42:16.558Z,23.48
2019-06-10T12:43:16.546Z,23.29
2019-06-10T12:44:16.545Z,23.13
2019-06-10T12:45:16.524Z,23.07
2019-06-10T12:46:16.538Z,22.78
2019-06-10T12:47:16.922Z,22.73
2019-06-10T12:48:16.496Z,22.76
2019-06-10T12:49:18.435Z,22.80
2019-06-10T12:50:28.638Z,22.83
2019-06-10T12:51:16.597Z,22.95
2019-06-10T12:52:16.452Z,23.08
2019-06-10T12:53:16.433Z,23.21
2019-06-10T12:54:16.422Z,23.29